sensor_id;sensor_type;location;lat;lon;timestamp;P1;durP1;ratioP1;P2;durP2;ratioP2
76296;SDS011;65104;52.994;6.552;2023-02-16T00:00:44;48.70;;;23.83;;
76296;SDS011;65104;52.994;6.552;2023-02-16T00:03:21;43.15;;;23.17;;
76296;SDS011;65104;52.994;6.552;2023-02-16T00:05:47;43.75;;;23.27;;
76296;SDS011;65104;52.994;6.552;2023-02-16T00:08:13;48.45;;;23.77;;
76296;SDS011;65104;52.994;6.552;2023-02-16T00:10:39;49.65;;;22.33;;
76296;SDS011;65104;52.994;6.552;2023-02-16T00:13:14;48.83;;;23.33;;
76296;SDS011;65104;52.994;6.552;2023-02-16T00:16:06;46.90;;;22.65;;
76296;SDS011;65104;52.994;6.552;2023-02-16T00:18:37;41.58;;;22.48;;
76296;SDS011;65104;52.994;6.552;2023-02-16T00:21:02;49.40;;;23.52;;
76296;SDS011;65104;52.994;6.552;2023-02-16T00:23:28;47.78;;;23.65;;
76296;SDS011;65104;52.994;6.552;2023-02-16T00:25:53;48.42;;;22.60;;
76296;SDS011;65104;52.994;6.552;2023-02-16T00:28:19;46.95;;;22.55;;
76296;SDS011;65104;52.994;6.552;2023-02-16T00:30:45;48.10;;;22.92;;
76296;SDS011;65104;52.994;6.552;2023-02-16T00:33:18;43.97;;;21.02;;
76296;SDS011;65104;52.994;6.552;2023-02-16T00:35:45;44.00;;;22.10;;
76296;SDS011;65104;52.994;6.552;2023-02-16T00:38:11;44.63;;;22.23;;
76296;SDS011;65104;52.994;6.552;2023-02-16T00:40:37;48.03;;;23.50;;
76296;SDS011;65104;52.994;6.552;2023-02-16T00:43:04;46.90;;;23.15;;
76296;SDS011;65104;52.994;6.552;2023-02-16T00:45:30;46.08;;;23.65;;
76296;SDS011;65104;52.994;6.552;2023-02-16T00:48:00;45.63;;;22.63;;
76296;SDS011;65104;52.994;6.552;2023-02-16T00:50:26;46.78;;;23.48;;
76296;SDS011;65104;52.994;6.552;2023-02-16T00:52:54;45.60;;;24.00;;
76296;SDS011;65104;52.994;6.552;2023-02-16T01:00:27;47.03;;;22.30;;
76296;SDS011;65104;52.994;6.552;2023-02-16T01:02:59;51.03;;;24.02;;
76296;SDS011;65104;52.994;6.552;2023-02-16T01:05:27;43.80;;;23.27;;
76296;SDS011;65104;52.994;6.552;2023-02-16T01:07:53;47.42;;;25.05;;
76296;SDS011;65104;52.994;6.552;2023-02-16T01:10:37;49.45;;;23.23;;
76296;SDS011;65104;52.994;6.552;2023-02-16T01:13:22;50.55;;;23.10;;
76296;SDS011;65104;52.994;6.552;2023-02-16T01:15:52;45.22;;;22.17;;
76296;SDS011;65104;52.994;6.552;2023-02-16T01:18:18;48.30;;;23.88;;
76296;SDS011;65104;52.994;6.552;2023-02-16T01:20:44;51.38;;;24.73;;
76296;SDS011;65104;52.994;6.552;2023-02-16T01:23:11;47.95;;;24.02;;
76296;SDS011;65104;52.994;6.552;2023-02-16T01:25:37;45.53;;;23.13;;
76296;SDS011;65104;52.994;6.552;2023-02-16T01:28:10;47.97;;;24.88;;
76296;SDS011;65104;52.994;6.552;2023-02-16T01:30:43;48.35;;;23.58;;
76296;SDS011;65104;52.994;6.552;2023-02-16T01:33:08;45.92;;;23.00;;
76296;SDS011;65104;52.994;6.552;2023-02-16T01:35:34;51.22;;;23.77;;
76296;SDS011;65104;52.994;6.552;2023-02-16T01:37:59;46.65;;;22.65;;
76296;SDS011;65104;52.994;6.552;2023-02-16T01:43:01;46.72;;;24.38;;
76296;SDS011;65104;52.994;6.552;2023-02-16T01:46:19;44.78;;;23.30;;
76296;SDS011;65104;52.994;6.552;2023-02-16T01:48:53;47.50;;;24.98;;
76296;SDS011;65104;52.994;6.552;2023-02-16T01:51:29;47.90;;;23.77;;
76296;SDS011;65104;52.994;6.552;2023-02-16T01:54:07;48.47;;;23.42;;
76296;SDS011;65104;52.994;6.552;2023-02-16T01:56:45;49.05;;;24.67;;
76296;SDS011;65104;52.994;6.552;2023-02-16T02:01:57;52.08;;;22.80;;
76296;SDS011;65104;52.994;6.552;2023-02-16T02:07:24;49.05;;;22.85;;
76296;SDS011;65104;52.994;6.552;2023-02-16T02:10:00;52.10;;;24.10;;
76296;SDS011;65104;52.994;6.552;2023-02-16T02:12:51;45.28;;;23.42;;
76296;SDS011;65104;52.994;6.552;2023-02-16T02:15:30;51.42;;;23.30;;
76296;SDS011;65104;52.994;6.552;2023-02-16T02:17:56;49.78;;;24.33;;
76296;SDS011;65104;52.994;6.552;2023-02-16T02:29:11;53.08;;;24.67;;
76296;SDS011;65104;52.994;6.552;2023-02-16T02:31:49;49.13;;;22.83;;
76296;SDS011;65104;52.994;6.552;2023-02-16T02:37:34;46.30;;;24.00;;
76296;SDS011;65104;52.994;6.552;2023-02-16T02:43:18;51.75;;;25.95;;
76296;SDS011;65104;52.994;6.552;2023-02-16T02:45:57;49.72;;;25.63;;
76296;SDS011;65104;52.994;6.552;2023-02-16T02:48:30;49.47;;;25.23;;
76296;SDS011;65104;52.994;6.552;2023-02-16T02:50:58;54.72;;;24.85;;
76296;SDS011;65104;52.994;6.552;2023-02-16T02:53:53;51.42;;;25.83;;
76296;SDS011;65104;52.994;6.552;2023-02-16T02:56:44;45.10;;;25.00;;
76296;SDS011;65104;52.994;6.552;2023-02-16T02:59:38;50.63;;;25.40;;
76296;SDS011;65104;52.994;6.552;2023-02-16T03:02:25;47.58;;;23.88;;
76296;SDS011;65104;52.994;6.552;2023-02-16T03:04:52;56.38;;;27.10;;
76296;SDS011;65104;52.994;6.552;2023-02-16T03:07:21;52.03;;;27.08;;
76296;SDS011;65104;52.994;6.552;2023-02-16T03:10:10;52.50;;;26.25;;
76296;SDS011;65104;52.994;6.552;2023-02-16T03:12:56;56.47;;;25.45;;
76296;SDS011;65104;52.994;6.552;2023-02-16T03:15:23;50.60;;;24.85;;
76296;SDS011;65104;52.994;6.552;2023-02-16T03:17:50;52.97;;;27.70;;
76296;SDS011;65104;52.994;6.552;2023-02-16T03:20:38;51.35;;;27.48;;
76296;SDS011;65104;52.994;6.552;2023-02-16T03:23:24;51.35;;;25.83;;
76296;SDS011;65104;52.994;6.552;2023-02-16T03:26:08;55.22;;;26.45;;
76296;SDS011;65104;52.994;6.552;2023-02-16T03:28:53;58.53;;;26.63;;
76296;SDS011;65104;52.994;6.552;2023-02-16T03:31:38;54.33;;;26.27;;
76296;SDS011;65104;52.994;6.552;2023-02-16T03:34:04;52.25;;;27.65;;
76296;SDS011;65104;52.994;6.552;2023-02-16T03:36:32;59.45;;;27.55;;
76296;SDS011;65104;52.994;6.552;2023-02-16T03:39:00;56.03;;;27.15;;
76296;SDS011;65104;52.994;6.552;2023-02-16T03:41:26;57.55;;;26.67;;
76296;SDS011;65104;52.994;6.552;2023-02-16T03:43:56;55.53;;;26.20;;
76296;SDS011;65104;52.994;6.552;2023-02-16T03:46:22;49.35;;;25.73;;
76296;SDS011;65104;52.994;6.552;2023-02-16T03:48:47;50.42;;;25.67;;
76296;SDS011;65104;52.994;6.552;2023-02-16T03:51:13;51.90;;;24.98;;
76296;SDS011;65104;52.994;6.552;2023-02-16T03:53:38;49.63;;;26.45;;
76296;SDS011;65104;52.994;6.552;2023-02-16T03:56:04;48.72;;;24.98;;
76296;SDS011;65104;52.994;6.552;2023-02-16T03:58:29;52.72;;;25.95;;
76296;SDS011;65104;52.994;6.552;2023-02-16T04:00:55;57.15;;;25.67;;
76296;SDS011;65104;52.994;6.552;2023-02-16T04:03:22;54.60;;;26.70;;
76296;SDS011;65104;52.994;6.552;2023-02-16T04:05:48;55.05;;;27.63;;
76296;SDS011;65104;52.994;6.552;2023-02-16T04:08:13;52.67;;;26.38;;
76296;SDS011;65104;52.994;6.552;2023-02-16T04:10:39;50.95;;;25.75;;
76296;SDS011;65104;52.994;6.552;2023-02-16T04:13:04;56.33;;;26.00;;
76296;SDS011;65104;52.994;6.552;2023-02-16T04:15:30;49.90;;;26.98;;
76296;SDS011;65104;52.994;6.552;2023-02-16T04:17:56;59.83;;;29.45;;
76296;SDS011;65104;52.994;6.552;2023-02-16T04:20:23;58.60;;;27.35;;
76296;SDS011;65104;52.994;6.552;2023-02-16T04:22:50;53.13;;;26.90;;
76296;SDS011;65104;52.994;6.552;2023-02-16T04:25:16;51.75;;;26.27;;
76296;SDS011;65104;52.994;6.552;2023-02-16T04:27:42;52.55;;;25.92;;
76296;SDS011;65104;52.994;6.552;2023-02-16T04:30:10;52.33;;;25.88;;
76296;SDS011;65104;52.994;6.552;2023-02-16T04:32:36;56.53;;;26.98;;
76296;SDS011;65104;52.994;6.552;2023-02-16T04:35:02;53.65;;;27.58;;
76296;SDS011;65104;52.994;6.552;2023-02-16T04:37:28;55.90;;;26.83;;
76296;SDS011;65104;52.994;6.552;2023-02-16T04:39:53;52.55;;;27.85;;
76296;SDS011;65104;52.994;6.552;2023-02-16T04:42:19;54.78;;;27.10;;
76296;SDS011;65104;52.994;6.552;2023-02-16T04:44:44;50.25;;;25.85;;
76296;SDS011;65104;52.994;6.552;2023-02-16T04:47:09;52.78;;;26.83;;
76296;SDS011;65104;52.994;6.552;2023-02-16T04:49:35;50.10;;;24.17;;
76296;SDS011;65104;52.994;6.552;2023-02-16T04:52:00;50.33;;;24.67;;
76296;SDS011;65104;52.994;6.552;2023-02-16T04:54:28;56.72;;;26.08;;
76296;SDS011;65104;52.994;6.552;2023-02-16T04:56:54;60.25;;;27.30;;
76296;SDS011;65104;52.994;6.552;2023-02-16T04:59:19;52.97;;;26.83;;
76296;SDS011;65104;52.994;6.552;2023-02-16T05:01:45;53.17;;;26.02;;
76296;SDS011;65104;52.994;6.552;2023-02-16T05:04:11;52.90;;;24.33;;
76296;SDS011;65104;52.994;6.552;2023-02-16T05:06:36;54.13;;;25.63;;
76296;SDS011;65104;52.994;6.552;2023-02-16T05:09:03;50.85;;;25.50;;
76296;SDS011;65104;52.994;6.552;2023-02-16T05:11:30;53.75;;;26.92;;
76296;SDS011;65104;52.994;6.552;2023-02-16T05:14:22;48.80;;;26.10;;
76296;SDS011;65104;52.994;6.552;2023-02-16T05:17:20;55.58;;;27.42;;
76296;SDS011;65104;52.994;6.552;2023-02-16T05:19:48;52.20;;;25.60;;
76296;SDS011;65104;52.994;6.552;2023-02-16T05:22:16;51.60;;;25.15;;
76296;SDS011;65104;52.994;6.552;2023-02-16T05:24:42;55.85;;;27.73;;
76296;SDS011;65104;52.994;6.552;2023-02-16T05:27:11;55.38;;;26.75;;
76296;SDS011;65104;52.994;6.552;2023-02-16T05:29:44;52.88;;;24.50;;
76296;SDS011;65104;52.994;6.552;2023-02-16T05:32:09;54.83;;;28.05;;
76296;SDS011;65104;52.994;6.552;2023-02-16T05:34:35;54.90;;;26.20;;
76296;SDS011;65104;52.994;6.552;2023-02-16T05:37:00;55.92;;;27.52;;
76296;SDS011;65104;52.994;6.552;2023-02-16T05:39:26;50.70;;;24.08;;
76296;SDS011;65104;52.994;6.552;2023-02-16T05:41:51;55.30;;;28.08;;
76296;SDS011;65104;52.994;6.552;2023-02-16T05:44:17;53.70;;;26.75;;
76296;SDS011;65104;52.994;6.552;2023-02-16T05:46:42;52.97;;;27.55;;
76296;SDS011;65104;52.994;6.552;2023-02-16T05:49:08;53.15;;;25.67;;
76296;SDS011;65104;52.994;6.552;2023-02-16T05:51:34;53.88;;;27.70;;
76296;SDS011;65104;52.994;6.552;2023-02-16T05:54:00;48.28;;;24.95;;
76296;SDS011;65104;52.994;6.552;2023-02-16T05:56:26;53.42;;;26.75;;
76296;SDS011;65104;52.994;6.552;2023-02-16T05:58:52;52.75;;;27.33;;
76296;SDS011;65104;52.994;6.552;2023-02-16T06:01:18;52.53;;;26.70;;
76296;SDS011;65104;52.994;6.552;2023-02-16T06:03:44;52.95;;;26.23;;
76296;SDS011;65104;52.994;6.552;2023-02-16T06:06:10;50.45;;;24.92;;
76296;SDS011;65104;52.994;6.552;2023-02-16T06:08:36;55.30;;;26.65;;
76296;SDS011;65104;52.994;6.552;2023-02-16T06:11:02;52.55;;;25.88;;
76296;SDS011;65104;52.994;6.552;2023-02-16T06:13:31;50.75;;;26.05;;
76296;SDS011;65104;52.994;6.552;2023-02-16T06:15:57;53.78;;;25.60;;
76296;SDS011;65104;52.994;6.552;2023-02-16T06:18:23;54.20;;;26.58;;
76296;SDS011;65104;52.994;6.552;2023-02-16T06:20:49;49.55;;;25.77;;
76296;SDS011;65104;52.994;6.552;2023-02-16T06:23:15;51.50;;;25.15;;
76296;SDS011;65104;52.994;6.552;2023-02-16T06:25:41;56.38;;;26.38;;
76296;SDS011;65104;52.994;6.552;2023-02-16T06:28:08;53.00;;;26.30;;
76296;SDS011;65104;52.994;6.552;2023-02-16T06:30:34;49.03;;;24.50;;
76296;SDS011;65104;52.994;6.552;2023-02-16T06:33:00;49.30;;;25.83;;
76296;SDS011;65104;52.994;6.552;2023-02-16T06:35:26;53.83;;;25.85;;
76296;SDS011;65104;52.994;6.552;2023-02-16T06:37:52;54.63;;;26.45;;
76296;SDS011;65104;52.994;6.552;2023-02-16T06:40:17;50.03;;;26.00;;
76296;SDS011;65104;52.994;6.552;2023-02-16T06:42:43;54.63;;;27.35;;
76296;SDS011;65104;52.994;6.552;2023-02-16T06:45:08;48.30;;;27.70;;
76296;SDS011;65104;52.994;6.552;2023-02-16T06:47:34;51.13;;;27.23;;
76296;SDS011;65104;52.994;6.552;2023-02-16T06:50:00;53.55;;;28.02;;
76296;SDS011;65104;52.994;6.552;2023-02-16T06:52:26;47.75;;;24.90;;
76296;SDS011;65104;52.994;6.552;2023-02-16T06:54:52;49.67;;;27.17;;
76296;SDS011;65104;52.994;6.552;2023-02-16T06:57:17;54.92;;;27.73;;
76296;SDS011;65104;52.994;6.552;2023-02-16T06:59:43;50.88;;;25.15;;
76296;SDS011;65104;52.994;6.552;2023-02-16T07:02:08;52.47;;;27.10;;
76296;SDS011;65104;52.994;6.552;2023-02-16T07:04:35;50.22;;;25.65;;
76296;SDS011;65104;52.994;6.552;2023-02-16T07:07:00;55.15;;;27.00;;
76296;SDS011;65104;52.994;6.552;2023-02-16T07:09:25;53.72;;;28.10;;
76296;SDS011;65104;52.994;6.552;2023-02-16T07:11:51;55.55;;;28.65;;
76296;SDS011;65104;52.994;6.552;2023-02-16T07:14:16;55.03;;;26.38;;
76296;SDS011;65104;52.994;6.552;2023-02-16T07:16:42;54.40;;;28.38;;
76296;SDS011;65104;52.994;6.552;2023-02-16T07:19:08;53.20;;;28.63;;
76296;SDS011;65104;52.994;6.552;2023-02-16T07:21:33;57.17;;;28.50;;
76296;SDS011;65104;52.994;6.552;2023-02-16T07:23:59;62.03;;;27.35;;
76296;SDS011;65104;52.994;6.552;2023-02-16T07:26:24;52.88;;;26.98;;
76296;SDS011;65104;52.994;6.552;2023-02-16T07:28:50;50.70;;;25.42;;
76296;SDS011;65104;52.994;6.552;2023-02-16T07:31:16;48.88;;;26.98;;
76296;SDS011;65104;52.994;6.552;2023-02-16T07:33:42;58.70;;;27.83;;
76296;SDS011;65104;52.994;6.552;2023-02-16T07:36:08;48.42;;;26.88;;
76296;SDS011;65104;52.994;6.552;2023-02-16T07:38:34;55.42;;;28.83;;
76296;SDS011;65104;52.994;6.552;2023-02-16T07:41:00;51.53;;;25.70;;
76296;SDS011;65104;52.994;6.552;2023-02-16T07:43:26;56.78;;;27.02;;
76296;SDS011;65104;52.994;6.552;2023-02-16T07:45:52;50.85;;;26.60;;
76296;SDS011;65104;52.994;6.552;2023-02-16T07:48:17;51.28;;;27.75;;
76296;SDS011;65104;52.994;6.552;2023-02-16T07:50:43;54.50;;;26.90;;
76296;SDS011;65104;52.994;6.552;2023-02-16T07:53:08;48.60;;;24.30;;
76296;SDS011;65104;52.994;6.552;2023-02-16T07:55:38;51.53;;;26.23;;
76296;SDS011;65104;52.994;6.552;2023-02-16T07:58:04;49.38;;;25.40;;
76296;SDS011;65104;52.994;6.552;2023-02-16T08:00:30;51.15;;;27.80;;
76296;SDS011;65104;52.994;6.552;2023-02-16T08:02:56;49.92;;;27.17;;
76296;SDS011;65104;52.994;6.552;2023-02-16T08:05:21;55.47;;;26.85;;
76296;SDS011;65104;52.994;6.552;2023-02-16T08:07:47;51.45;;;28.17;;
76296;SDS011;65104;52.994;6.552;2023-02-16T08:10:12;51.35;;;27.00;;
76296;SDS011;65104;52.994;6.552;2023-02-16T08:12:39;55.08;;;25.90;;
76296;SDS011;65104;52.994;6.552;2023-02-16T08:15:05;49.55;;;25.27;;
76296;SDS011;65104;52.994;6.552;2023-02-16T08:17:32;44.42;;;25.17;;
76296;SDS011;65104;52.994;6.552;2023-02-16T08:19:58;53.85;;;26.27;;
76296;SDS011;65104;52.994;6.552;2023-02-16T08:22:23;55.42;;;29.98;;
76296;SDS011;65104;52.994;6.552;2023-02-16T08:24:49;53.63;;;27.52;;
76296;SDS011;65104;52.994;6.552;2023-02-16T08:27:15;54.92;;;28.02;;
76296;SDS011;65104;52.994;6.552;2023-02-16T08:29:41;54.58;;;26.50;;
76296;SDS011;65104;52.994;6.552;2023-02-16T08:32:06;50.67;;;26.58;;
76296;SDS011;65104;52.994;6.552;2023-02-16T08:34:35;48.80;;;26.27;;
76296;SDS011;65104;52.994;6.552;2023-02-16T08:37:02;52.58;;;25.67;;
76296;SDS011;65104;52.994;6.552;2023-02-16T08:39:28;49.88;;;26.73;;
76296;SDS011;65104;52.994;6.552;2023-02-16T08:41:55;52.92;;;26.85;;
76296;SDS011;65104;52.994;6.552;2023-02-16T08:44:22;54.88;;;29.25;;
76296;SDS011;65104;52.994;6.552;2023-02-16T08:46:49;50.17;;;25.67;;
76296;SDS011;65104;52.994;6.552;2023-02-16T08:49:17;58.80;;;28.60;;
76296;SDS011;65104;52.994;6.552;2023-02-16T08:51:46;50.30;;;29.00;;
76296;SDS011;65104;52.994;6.552;2023-02-16T08:54:18;51.08;;;27.52;;
76296;SDS011;65104;52.994;6.552;2023-02-16T08:56:45;50.15;;;27.63;;
76296;SDS011;65104;52.994;6.552;2023-02-16T08:59:14;51.78;;;26.83;;
76296;SDS011;65104;52.994;6.552;2023-02-16T09:01:40;52.47;;;26.92;;
76296;SDS011;65104;52.994;6.552;2023-02-16T09:04:06;51.17;;;28.65;;
76296;SDS011;65104;52.994;6.552;2023-02-16T09:06:32;55.85;;;27.67;;
76296;SDS011;65104;52.994;6.552;2023-02-16T09:09:01;47.55;;;27.10;;
76296;SDS011;65104;52.994;6.552;2023-02-16T09:11:29;54.75;;;28.67;;
76296;SDS011;65104;52.994;6.552;2023-02-16T09:13:54;52.63;;;27.08;;
76296;SDS011;65104;52.994;6.552;2023-02-16T09:16:21;55.80;;;28.27;;
76296;SDS011;65104;52.994;6.552;2023-02-16T09:18:47;47.65;;;24.23;;
76296;SDS011;65104;52.994;6.552;2023-02-16T09:21:17;55.20;;;27.80;;
76296;SDS011;65104;52.994;6.552;2023-02-16T09:23:45;45.58;;;24.58;;
76296;SDS011;65104;52.994;6.552;2023-02-16T09:26:13;51.70;;;29.65;;
76296;SDS011;65104;52.994;6.552;2023-02-16T09:28:49;52.67;;;29.30;;
76296;SDS011;65104;52.994;6.552;2023-02-16T09:31:16;50.63;;;28.13;;
76296;SDS011;65104;52.994;6.552;2023-02-16T09:33:50;49.67;;;27.65;;
76296;SDS011;65104;52.994;6.552;2023-02-16T09:36:17;52.45;;;27.23;;
76296;SDS011;65104;52.994;6.552;2023-02-16T09:38:42;54.92;;;26.23;;
76296;SDS011;65104;52.994;6.552;2023-02-16T09:41:44;53.92;;;28.17;;
76296;SDS011;65104;52.994;6.552;2023-02-16T09:47:13;52.30;;;26.50;;
76296;SDS011;65104;52.994;6.552;2023-02-16T09:49:46;52.35;;;27.30;;
76296;SDS011;65104;52.994;6.552;2023-02-16T09:52:18;47.60;;;25.67;;
76296;SDS011;65104;52.994;6.552;2023-02-16T09:54:52;49.83;;;26.95;;
76296;SDS011;65104;52.994;6.552;2023-02-16T09:57:32;57.13;;;30.08;;
76296;SDS011;65104;52.994;6.552;2023-02-16T10:05:28;51.33;;;28.48;;
76296;SDS011;65104;52.994;6.552;2023-02-16T10:08:13;48.50;;;26.88;;
76296;SDS011;65104;52.994;6.552;2023-02-16T10:13:35;52.72;;;28.52;;
76296;SDS011;65104;52.994;6.552;2023-02-16T10:16:10;54.65;;;26.65;;
76296;SDS011;65104;52.994;6.552;2023-02-16T10:18:42;52.50;;;25.58;;
76296;SDS011;65104;52.994;6.552;2023-02-16T10:21:18;54.80;;;26.98;;
76296;SDS011;65104;52.994;6.552;2023-02-16T10:23:50;54.60;;;27.48;;
76296;SDS011;65104;52.994;6.552;2023-02-16T10:29:18;59.10;;;27.58;;
76296;SDS011;65104;52.994;6.552;2023-02-16T10:34:51;57.13;;;28.13;;
76296;SDS011;65104;52.994;6.552;2023-02-16T10:37:27;53.90;;;26.90;;
76296;SDS011;65104;52.994;6.552;2023-02-16T10:40:17;55.92;;;27.38;;
76296;SDS011;65104;52.994;6.552;2023-02-16T10:43:10;59.83;;;29.60;;
76296;SDS011;65104;52.994;6.552;2023-02-16T10:48:13;65.75;;;31.10;;
76296;SDS011;65104;52.994;6.552;2023-02-16T10:51:00;60.85;;;30.70;;
76296;SDS011;65104;52.994;6.552;2023-02-16T10:55:56;67.22;;;31.42;;
76296;SDS011;65104;52.994;6.552;2023-02-16T10:58:26;59.58;;;30.50;;
76296;SDS011;65104;52.994;6.552;2023-02-16T11:01:02;63.63;;;31.90;;
76296;SDS011;65104;52.994;6.552;2023-02-16T11:03:39;62.83;;;29.73;;
76296;SDS011;65104;52.994;6.552;2023-02-16T11:06:18;62.05;;;30.92;;
76296;SDS011;65104;52.994;6.552;2023-02-16T11:08:53;58.58;;;31.73;;
76296;SDS011;65104;52.994;6.552;2023-02-16T11:11:29;58.78;;;32.05;;
76296;SDS011;65104;52.994;6.552;2023-02-16T11:14:01;62.78;;;32.13;;
76296;SDS011;65104;52.994;6.552;2023-02-16T11:16:29;62.33;;;30.40;;
76296;SDS011;65104;52.994;6.552;2023-02-16T11:18:56;59.88;;;31.30;;
76296;SDS011;65104;52.994;6.552;2023-02-16T11:24:28;56.97;;;30.52;;
76296;SDS011;65104;52.994;6.552;2023-02-16T11:27:06;59.55;;;30.27;;
76296;SDS011;65104;52.994;6.552;2023-02-16T11:29:41;64.20;;;30.52;;
76296;SDS011;65104;52.994;6.552;2023-02-16T11:32:07;66.60;;;35.00;;
76296;SDS011;65104;52.994;6.552;2023-02-16T11:34:56;63.67;;;32.22;;
76296;SDS011;65104;52.994;6.552;2023-02-16T11:37:25;62.95;;;32.50;;
76296;SDS011;65104;52.994;6.552;2023-02-16T11:40:04;63.50;;;33.28;;
76296;SDS011;65104;52.994;6.552;2023-02-16T11:42:46;64.47;;;32.85;;
76296;SDS011;65104;52.994;6.552;2023-02-16T11:45:21;58.40;;;31.98;;
76296;SDS011;65104;52.994;6.552;2023-02-16T11:47:51;63.33;;;29.85;;
76296;SDS011;65104;52.994;6.552;2023-02-16T11:52:47;65.28;;;32.30;;
76296;SDS011;65104;52.994;6.552;2023-02-16T11:55:23;70.47;;;30.98;;
76296;SDS011;65104;52.994;6.552;2023-02-16T11:58:11;63.10;;;30.33;;
76296;SDS011;65104;52.994;6.552;2023-02-16T12:00:48;62.38;;;29.95;;
76296;SDS011;65104;52.994;6.552;2023-02-16T12:12:17;64.43;;;32.63;;
76296;SDS011;65104;52.994;6.552;2023-02-16T12:23:20;52.55;;;29.10;;
76296;SDS011;65104;52.994;6.552;2023-02-16T12:26:28;54.25;;;29.33;;
76296;SDS011;65104;52.994;6.552;2023-02-16T12:40:22;51.90;;;28.50;;
76296;SDS011;65104;52.994;6.552;2023-02-16T12:45:54;53.55;;;28.33;;
76296;SDS011;65104;52.994;6.552;2023-02-16T12:54:16;46.92;;;26.05;;
76296;SDS011;65104;52.994;6.552;2023-02-16T12:57:00;50.92;;;27.70;;
76296;SDS011;65104;52.994;6.552;2023-02-16T13:02:13;48.55;;;25.25;;
76296;SDS011;65104;52.994;6.552;2023-02-16T13:07:42;44.90;;;25.38;;
76296;SDS011;65104;52.994;6.552;2023-02-16T13:13:02;42.78;;;23.70;;
76296;SDS011;65104;52.994;6.552;2023-02-16T13:15:33;38.38;;;22.38;;
76296;SDS011;65104;52.994;6.552;2023-02-16T13:18:17;37.40;;;21.50;;
76296;SDS011;65104;52.994;6.552;2023-02-16T13:20:49;37.90;;;21.52;;
76296;SDS011;65104;52.994;6.552;2023-02-16T13:23:27;39.03;;;22.00;;
76296;SDS011;65104;52.994;6.552;2023-02-16T13:34:35;37.33;;;21.50;;
76296;SDS011;65104;52.994;6.552;2023-02-16T13:45:51;39.17;;;21.38;;
76296;SDS011;65104;52.994;6.552;2023-02-16T13:48:29;37.17;;;20.10;;
76296;SDS011;65104;52.994;6.552;2023-02-16T13:51:07;33.47;;;19.00;;
76296;SDS011;65104;52.994;6.552;2023-02-16T13:53:38;32.65;;;18.48;;
76296;SDS011;65104;52.994;6.552;2023-02-16T13:58:53;32.63;;;18.35;;
76296;SDS011;65104;52.994;6.552;2023-02-16T14:03:59;35.58;;;19.90;;
76296;SDS011;65104;52.994;6.552;2023-02-16T14:09:52;33.45;;;19.45;;
76296;SDS011;65104;52.994;6.552;2023-02-16T14:12:00;35.35;;;20.98;;
76296;SDS011;65104;52.994;6.552;2023-02-16T14:17:15;34.83;;;19.23;;
76296;SDS011;65104;52.994;6.552;2023-02-16T14:19:51;39.03;;;22.23;;
76296;SDS011;65104;52.994;6.552;2023-02-16T14:27:52;37.97;;;21.10;;
76296;SDS011;65104;52.994;6.552;2023-02-16T14:41:51;28.58;;;17.20;;
76296;SDS011;65104;52.994;6.552;2023-02-16T14:57:09;37.40;;;20.13;;
76296;SDS011;65104;52.994;6.552;2023-02-16T14:59:54;36.22;;;20.33;;
76296;SDS011;65104;52.994;6.552;2023-02-16T15:02:32;40.53;;;20.98;;
76296;SDS011;65104;52.994;6.552;2023-02-16T15:05:21;36.58;;;20.55;;
76296;SDS011;65104;52.994;6.552;2023-02-16T15:07:58;38.90;;;21.42;;
76296;SDS011;65104;52.994;6.552;2023-02-16T15:10:43;44.55;;;22.88;;
76296;SDS011;65104;52.994;6.552;2023-02-16T15:13:19;41.65;;;23.23;;
76296;SDS011;65104;52.994;6.552;2023-02-16T15:15:48;52.78;;;28.23;;
76296;SDS011;65104;52.994;6.552;2023-02-16T15:18:17;45.72;;;23.52;;
76296;SDS011;65104;52.994;6.552;2023-02-16T15:20:47;43.45;;;24.30;;
76296;SDS011;65104;52.994;6.552;2023-02-16T15:23:19;45.03;;;24.35;;
76296;SDS011;65104;52.994;6.552;2023-02-16T15:25:59;50.50;;;26.65;;
76296;SDS011;65104;52.994;6.552;2023-02-16T15:28:31;51.40;;;27.05;;
76296;SDS011;65104;52.994;6.552;2023-02-16T15:36:08;50.00;;;26.30;;
76296;SDS011;65104;52.994;6.552;2023-02-16T15:38:42;53.08;;;27.77;;
76296;SDS011;65104;52.994;6.552;2023-02-16T15:41:25;48.78;;;25.83;;
76296;SDS011;65104;52.994;6.552;2023-02-16T15:43:54;50.08;;;26.45;;
76296;SDS011;65104;52.994;6.552;2023-02-16T15:49:12;50.80;;;26.75;;
76296;SDS011;65104;52.994;6.552;2023-02-16T15:51:43;52.15;;;26.05;;
76296;SDS011;65104;52.994;6.552;2023-02-16T15:54:18;47.97;;;26.23;;
76296;SDS011;65104;52.994;6.552;2023-02-16T15:56:49;50.75;;;25.20;;
76296;SDS011;65104;52.994;6.552;2023-02-16T16:02:10;50.97;;;24.88;;
76296;SDS011;65104;52.994;6.552;2023-02-16T16:04:51;52.20;;;25.95;;
76296;SDS011;65104;52.994;6.552;2023-02-16T16:07:26;53.08;;;27.13;;
76296;SDS011;65104;52.994;6.552;2023-02-16T16:09:54;53.55;;;26.42;;
76296;SDS011;65104;52.994;6.552;2023-02-16T16:12:21;55.60;;;27.90;;
76296;SDS011;65104;52.994;6.552;2023-02-16T16:17:20;52.78;;;28.13;;
76296;SDS011;65104;52.994;6.552;2023-02-16T16:19:49;48.05;;;24.00;;
76296;SDS011;65104;52.994;6.552;2023-02-16T16:27:54;52.78;;;27.75;;
76296;SDS011;65104;52.994;6.552;2023-02-16T16:33:07;51.33;;;28.48;;
76296;SDS011;65104;52.994;6.552;2023-02-16T16:35:45;49.25;;;26.67;;
76296;SDS011;65104;52.994;6.552;2023-02-16T16:38:22;50.90;;;25.98;;
76296;SDS011;65104;52.994;6.552;2023-02-16T16:40:58;54.53;;;28.52;;
76296;SDS011;65104;52.994;6.552;2023-02-16T16:43:33;54.28;;;27.33;;
76296;SDS011;65104;52.994;6.552;2023-02-16T16:48:59;59.22;;;27.95;;
76296;SDS011;65104;52.994;6.552;2023-02-16T16:54:01;60.15;;;29.75;;
76296;SDS011;65104;52.994;6.552;2023-02-16T16:56:28;58.90;;;28.50;;
76296;SDS011;65104;52.994;6.552;2023-02-16T16:58:56;57.60;;;28.85;;
76296;SDS011;65104;52.994;6.552;2023-02-16T17:01:23;55.88;;;28.95;;
76296;SDS011;65104;52.994;6.552;2023-02-16T17:03:50;59.78;;;29.95;;
76296;SDS011;65104;52.994;6.552;2023-02-16T17:06:16;64.97;;;30.33;;
76296;SDS011;65104;52.994;6.552;2023-02-16T17:08:42;58.47;;;28.08;;
76296;SDS011;65104;52.994;6.552;2023-02-16T17:13:52;59.63;;;28.77;;
76296;SDS011;65104;52.994;6.552;2023-02-16T17:16:25;70.10;;;34.42;;
76296;SDS011;65104;52.994;6.552;2023-02-16T17:18:52;68.47;;;32.97;;
76296;SDS011;65104;52.994;6.552;2023-02-16T17:21:18;65.53;;;31.63;;
76296;SDS011;65104;52.994;6.552;2023-02-16T17:23:44;60.50;;;29.35;;
76296;SDS011;65104;52.994;6.552;2023-02-16T17:26:09;65.57;;;32.97;;
76296;SDS011;65104;52.994;6.552;2023-02-16T17:28:35;66.43;;;31.90;;
76296;SDS011;65104;52.994;6.552;2023-02-16T17:31:03;68.25;;;33.40;;
76296;SDS011;65104;52.994;6.552;2023-02-16T17:33:30;63.30;;;30.60;;
76296;SDS011;65104;52.994;6.552;2023-02-16T17:35:55;75.00;;;33.05;;
76296;SDS011;65104;52.994;6.552;2023-02-16T17:38:21;65.25;;;30.83;;
76296;SDS011;65104;52.994;6.552;2023-02-16T17:40:48;67.03;;;35.95;;
76296;SDS011;65104;52.994;6.552;2023-02-16T17:43:16;72.50;;;37.00;;
76296;SDS011;65104;52.994;6.552;2023-02-16T17:45:42;66.65;;;32.88;;
76296;SDS011;65104;52.994;6.552;2023-02-16T17:48:27;66.72;;;31.90;;
76296;SDS011;65104;52.994;6.552;2023-02-16T17:50:55;63.95;;;32.25;;